createdAt,value
2022-12-03T00:01:58.919Z,98092.94
2022-12-03T00:04:28.422Z,98090.08
2022-12-03T00:06:57.408Z,98090.61
2022-12-03T00:09:26.313Z,98094.73
2022-12-03T00:11:55.711Z,98100.75
2022-12-03T00:14:26.363Z,98106.75
2022-12-03T00:16:55.241Z,98114.29
2022-12-03T00:19:24.621Z,98121.06
2022-12-03T00:21:54.227Z,98120.31
2022-12-03T00:24:23.642Z,98121.16
2022-12-03T00:26:53.166Z,98121.15
2022-12-03T00:29:23.086Z,98121.65
2022-12-03T00:31:52.874Z,98120.46
2022-12-03T00:34:22.772Z,98121.02
2022-12-03T00:36:51.567Z,98122.61
2022-12-03T00:39:20.557Z,98126.94
2022-12-03T00:41:49.982Z,98132.61
2022-12-03T00:44:19.974Z,98133.96
2022-12-03T00:46:49.030Z,98138.61
2022-12-03T00:49:18.584Z,98140.95
2022-12-03T00:51:49.052Z,98138.04
2022-12-03T00:54:17.920Z,98141.08
2022-12-03T00:56:47.796Z,98141.88
2022-12-03T00:59:18.175Z,98140.50
2022-12-03T01:01:47.366Z,98143.09
2022-12-03T01:04:17.448Z,98147.71
2022-12-03T01:06:47.264Z,98150.30
2022-12-03T01:09:16.678Z,98150.45
2022-12-03T01:11:46.283Z,98149.92
2022-12-03T01:14:17.956Z,98150.95
2022-12-03T01:16:48.451Z,98155.05
2022-12-03T01:19:18.791Z,98151.58
2022-12-03T01:21:49.187Z,98155.05
2022-12-03T01:24:19.707Z,98158.98
2022-12-03T01:26:49.012Z,98158.50
2022-12-03T01:29:18.338Z,98159.52
2022-12-03T01:32:06.376Z,98160.85
2022-12-03T01:34:35.925Z,98157.08
2022-12-03T01:37:05.289Z,98153.02
2022-12-03T01:39:34.495Z,98154.06
2022-12-03T01:42:05.114Z,98151.15
2022-12-03T01:44:37.021Z,98151.19
2022-12-03T01:47:11.929Z,98149.71
2022-12-03T01:50:00.546Z,98147.98
2022-12-03T01:52:35.285Z,98148.31
2022-12-03T01:55:12.205Z,98149.90
2022-12-03T01:57:45.252Z,98147.81
2022-12-03T02:00:21.619Z,98148.33
2022-12-03T02:03:02.200Z,98146.98
2022-12-03T02:05:33.996Z,98145.19
2022-12-03T02:08:42.795Z,98147.46
2022-12-03T02:11:32.447Z,98148.20
2022-12-03T02:14:11.046Z,98146.61
2022-12-03T02:16:42.622Z,98144.58
2022-12-03T02:19:26.797Z,98144.94
2022-12-03T02:22:17.046Z,98147.10
2022-12-03T02:25:01.007Z,98148.34
2022-12-03T02:27:30.749Z,98146.80
2022-12-03T02:30:00.227Z,98147.98
2022-12-03T02:32:31.231Z,98149.32
2022-12-03T02:35:02.234Z,98151.39
2022-12-03T02:37:38.746Z,98151.72
2022-12-03T02:40:13.604Z,98154.17
2022-12-03T02:42:46.205Z,98150.20
2022-12-03T02:45:28.006Z,98150.02
2022-12-03T02:48:20.951Z,98151.00
2022-12-03T02:50:58.090Z,98157.19
2022-12-03T02:53:33.457Z,98157.23
2022-12-03T02:56:04.874Z,98160.89
2022-12-03T02:58:37.125Z,98156.91
2022-12-03T03:01:09.082Z,98157.05
2022-12-03T03:03:41.205Z,98159.78
2022-12-03T03:06:11.421Z,98154.98
2022-12-03T03:08:43.393Z,98158.61
2022-12-03T03:11:13.227Z,98157.30
2022-12-03T03:13:43.316Z,98157.11
2022-12-03T03:16:13.794Z,98155.23
2022-12-03T03:18:43.836Z,98157.64
2022-12-03T03:21:14.028Z,98159.88
2022-12-03T03:23:43.251Z,98158.71
2022-12-03T03:26:15.657Z,98156.34
2022-12-03T03:28:49.851Z,98159.59
2022-12-03T03:31:23.893Z,98162.69
2022-12-03T03:33:54.043Z,98166.61
2022-12-03T03:36:26.198Z,98166.13
2022-12-03T03:38:56.111Z,98163.52
2022-12-03T03:41:27.523Z,98167.25
2022-12-03T03:43:58.782Z,98173.29
2022-12-03T03:46:30.131Z,98174.98
2022-12-03T03:49:03.342Z,98174.67
2022-12-03T03:51:37.580Z,98178.31
2022-12-03T03:54:08.214Z,98178.52
2022-12-03T03:56:39.095Z,98178.11
2022-12-03T03:59:09.245Z,98175.02
2022-12-03T04:01:39.502Z,98175.21
2022-12-03T04:04:21.067Z,98173.59
2022-12-03T04:06:51.078Z,98174.39
2022-12-03T04:09:20.433Z,98177.45
2022-12-03T04:12:08.364Z,98181.69
2022-12-03T04:14:39.698Z,98182.54
2022-12-03T04:17:09.539Z,98180.92
2022-12-03T04:19:38.813Z,98184.98
2022-12-03T04:22:26.449Z,98184.13
2022-12-03T04:25:15.625Z,98183.20
2022-12-03T04:28:04.780Z,98185.88
2022-12-03T04:30:34.005Z,98190.06
2022-12-03T04:33:23.273Z,98186.23
2022-12-03T04:35:53.585Z,98188.40
2022-12-03T04:38:23.673Z,98189.00
2022-12-03T04:41:03.338Z,98192.03
2022-12-03T04:43:35.357Z,98189.58
2022-12-03T04:46:04.327Z,98192.92
2022-12-03T04:48:33.979Z,98197.20
2022-12-03T04:51:03.304Z,98198.02
2022-12-03T04:53:36.251Z,98200.52
2022-12-03T04:56:06.400Z,98208.00
2022-12-03T04:58:35.289Z,98207.06
2022-12-03T05:01:04.721Z,98205.98
2022-12-03T05:03:33.685Z,98202.83
2022-12-03T05:06:02.989Z,98206.00
2022-12-03T05:08:31.869Z,98202.15
2022-12-03T05:11:01.265Z,98201.63
2022-12-03T05:13:30.262Z,98203.85
2022-12-03T05:15:59.057Z,98204.86
2022-12-03T05:18:28.080Z,98206.04
2022-12-03T05:20:57.068Z,98206.98
2022-12-03T05:23:26.350Z,98209.70
2022-12-03T05:25:56.044Z,98209.04
2022-12-03T05:28:25.356Z,98210.93
2022-12-03T05:30:55.230Z,98208.48
2022-12-03T05:33:24.161Z,98212.73
2022-12-03T05:35:54.065Z,98216.29
2022-12-03T05:38:22.972Z,98215.55
2022-12-03T05:40:52.154Z,98219.16
2022-12-03T05:43:21.472Z,98219.33
2022-12-03T05:45:51.437Z,98218.81
2022-12-03T05:48:20.387Z,98214.30
2022-12-03T05:50:49.976Z,98215.12
2022-12-03T05:53:19.073Z,98216.81
2022-12-03T05:55:48.466Z,98216.80
2022-12-03T05:58:17.773Z,98218.15
2022-12-03T06:00:46.559Z,98222.73
2022-12-03T06:03:15.983Z,98222.67
2022-12-03T06:05:45.053Z,98225.06
2022-12-03T06:08:14.632Z,98224.17
2022-12-03T06:10:43.858Z,98224.17
2022-12-03T06:13:12.780Z,98228.16
2022-12-03T06:15:44.001Z,98228.48
2022-12-03T06:18:13.493Z,98234.83
2022-12-03T06:20:42.179Z,98234.64
2022-12-03T06:23:10.867Z,98233.50
2022-12-03T06:25:41.109Z,98235.58
2022-12-03T06:28:10.077Z,98235.67
2022-12-03T06:30:38.969Z,98236.02
2022-12-03T06:33:07.760Z,98238.73
2022-12-03T06:35:37.263Z,98237.10
2022-12-03T06:38:06.258Z,98238.94
2022-12-03T06:40:35.246Z,98240.30
2022-12-03T06:43:04.338Z,98239.23
2022-12-03T06:45:33.231Z,98242.75
2022-12-03T06:48:02.017Z,98241.88
2022-12-03T06:50:31.113Z,98237.95
2022-12-03T06:53:00.107Z,98242.55
2022-12-03T06:55:28.895Z,98244.06
2022-12-03T06:57:57.573Z,98247.95
2022-12-03T07:00:26.163Z,98250.20
2022-12-03T07:02:54.916Z,98244.63
2022-12-03T07:05:23.838Z,98245.44
2022-12-03T07:07:55.771Z,98249.14
2022-12-03T07:10:24.701Z,98243.39
2022-12-03T07:12:53.580Z,98248.66
2022-12-03T07:15:22.470Z,98246.19
2022-12-03T07:17:51.465Z,98248.55
2022-12-03T07:20:20.251Z,98253.13
2022-12-03T07:22:48.835Z,98251.67
2022-12-03T07:25:22.826Z,98252.80
2022-12-03T07:27:52.552Z,98254.91
2022-12-03T07:30:22.159Z,98254.23
2022-12-03T07:32:50.648Z,98255.39
2022-12-03T07:35:19.533Z,98256.30
2022-12-03T07:37:48.221Z,98255.30
2022-12-03T07:40:18.028Z,98253.23
2022-12-03T07:42:46.612Z,98255.27
2022-12-03T07:45:15.503Z,98259.17
2022-12-03T07:47:44.187Z,98257.04
2022-12-03T07:50:13.093Z,98261.67
2022-12-03T07:52:41.863Z,98260.25
2022-12-03T07:55:11.927Z,98263.02
2022-12-03T07:57:40.671Z,98261.15
2022-12-03T08:00:11.074Z,98261.31
2022-12-03T08:02:39.619Z,98259.36
2022-12-03T08:05:09.293Z,98258.73
2022-12-03T08:07:38.018Z,98259.01
2022-12-03T08:10:08.020Z,98257.98
2022-12-03T08:12:42.517Z,98263.38
2022-12-03T08:15:12.866Z,98266.50
2022-12-03T08:17:42.774Z,98267.07
2022-12-03T08:20:16.947Z,98267.13
2022-12-03T08:22:47.700Z,98265.48
2022-12-03T08:25:25.515Z,98260.94
2022-12-03T08:28:02.965Z,98262.61
2022-12-03T08:30:31.680Z,98264.23
2022-12-03T08:33:00.268Z,98269.62
2022-12-03T08:35:31.634Z,98264.52
2022-12-03T08:38:12.036Z,98265.85
2022-12-03T08:40:43.785Z,98262.46
2022-12-03T08:43:24.907Z,98261.73
2022-12-03T08:45:57.898Z,98260.08
2022-12-03T08:48:34.258Z,98258.05
2022-12-03T08:51:20.760Z,98250.77
2022-12-03T08:54:01.723Z,98252.38
2022-12-03T08:56:37.073Z,98252.08
2022-12-03T08:59:27.059Z,98247.86
2022-12-03T09:01:57.207Z,98251.18
2022-12-03T09:04:45.806Z,98253.13
2022-12-03T09:07:14.511Z,98248.67
2022-12-03T09:09:43.124Z,98244.72
2022-12-03T09:12:11.985Z,98245.83
2022-12-03T09:14:40.465Z,98245.64
2022-12-03T09:17:09.215Z,98244.25
2022-12-03T09:19:44.267Z,98245.44
2022-12-03T09:22:15.740Z,98245.05
2022-12-03T09:24:44.732Z,98246.75
2022-12-03T09:27:13.322Z,98245.48
2022-12-03T09:29:42.104Z,98244.09
2022-12-03T09:32:16.669Z,98245.45
2022-12-03T09:34:47.875Z,98242.73
2022-12-03T09:37:16.863Z,98241.61
2022-12-03T09:39:45.516Z,98240.49
2022-12-03T09:42:15.878Z,98239.55
2022-12-03T09:44:44.866Z,98239.85
2022-12-03T09:47:14.068Z,98242.22
2022-12-03T09:49:43.471Z,98243.33
2022-12-03T09:52:21.178Z,98241.14
2022-12-03T09:54:50.156Z,98242.89
2022-12-03T09:57:19.760Z,98239.17
2022-12-03T09:59:48.446Z,98234.57
2022-12-03T10:02:29.942Z,98234.41
2022-12-03T10:04:58.893Z,98233.38
2022-12-03T10:07:27.796Z,98232.78
2022-12-03T10:09:56.934Z,98232.91
2022-12-03T10:12:27.036Z,98223.86
2022-12-03T10:14:56.236Z,98224.95
2022-12-03T10:17:25.122Z,98225.30
2022-12-03T10:19:54.394Z,98222.70
2022-12-03T10:22:23.309Z,98223.84
2022-12-03T10:25:10.755Z,98222.02
2022-12-03T10:27:40.468Z,98221.48
2022-12-03T10:30:19.823Z,98221.66
2022-12-03T10:32:51.065Z,98212.96
2022-12-03T10:35:25.149Z,98209.42
2022-12-03T10:38:02.423Z,98204.63
2022-12-03T10:40:37.968Z,98204.17
2022-12-03T10:43:15.664Z,98201.73
2022-12-03T10:45:49.065Z,98199.91
2022-12-03T10:48:25.878Z,98199.42
2022-12-03T10:51:02.409Z,98194.68
2022-12-03T10:53:33.712Z,98195.09
2022-12-03T10:56:06.398Z,98193.45
2022-12-03T10:58:36.860Z,98192.12
2022-12-03T11:01:23.747Z,98191.35
2022-12-03T11:03:54.129Z,98185.56
2022-12-03T11:06:24.320Z,98184.62
2022-12-03T11:08:58.746Z,98184.50
2022-12-03T11:11:31.525Z,98184.05
2022-12-03T11:14:04.514Z,98183.35
2022-12-03T11:16:42.136Z,98185.38
2022-12-03T11:19:13.860Z,98186.36
2022-12-03T11:22:07.536Z,98186.08
2022-12-03T11:24:38.161Z,98183.84
2022-12-03T11:27:11.975Z,98180.70
2022-12-03T11:29:51.512Z,98183.05
2022-12-03T11:32:38.730Z,98182.17
2022-12-03T11:35:29.008Z,98178.47
2022-12-03T11:38:35.798Z,98179.48
2022-12-03T11:41:31.105Z,98175.56
2022-12-03T11:44:31.450Z,98180.05
2022-12-03T11:47:07.928Z,98177.55
2022-12-03T11:49:39.763Z,98171.30
2022-12-03T11:52:25.441Z,98170.04
2022-12-03T11:55:01.512Z,98167.80
2022-12-03T11:57:34.009Z,98169.02
2022-12-03T12:00:11.882Z,98166.06
2022-12-03T12:02:44.449Z,98166.56
2022-12-03T12:05:27.068Z,98160.71
2022-12-03T12:07:57.287Z,98157.08
2022-12-03T12:10:48.374Z,98159.31
2022-12-03T12:13:26.094Z,98158.34
2022-12-03T12:15:55.407Z,98160.41
2022-12-03T12:18:53.707Z,98162.06
2022-12-03T12:21:44.989Z,98165.45
2022-12-03T12:24:32.213Z,98164.54
2022-12-03T12:27:04.994Z,98168.02
2022-12-03T12:29:35.113Z,98162.39
2022-12-03T12:32:09.891Z,98165.90
2022-12-03T12:34:39.454Z,98163.02
2022-12-03T12:37:23.390Z,98165.79
2022-12-03T12:39:56.724Z,98167.05
2022-12-03T12:42:36.432Z,98167.13
2022-12-03T12:45:08.390Z,98169.09
2022-12-03T12:47:37.250Z,98164.86
2022-12-03T12:50:11.293Z,98163.77
2022-12-03T12:52:49.807Z,98162.89
2022-12-03T12:55:19.383Z,98167.73
2022-12-03T12:57:48.005Z,98168.11
2022-12-03T13:00:23.926Z,98169.41
2022-12-03T13:03:00.229Z,98171.52
2022-12-03T13:05:56.771Z,98172.16
2022-12-03T13:08:31.182Z,98169.27
2022-12-03T13:11:05.684Z,98169.77
2022-12-03T13:13:37.406Z,98169.77
2022-12-03T13:16:23.642Z,98168.15
2022-12-03T13:19:00.033Z,98170.05
2022-12-03T13:21:43.036Z,98173.20
2022-12-03T13:24:38.450Z,98171.07
2022-12-03T13:27:32.220Z,98174.96
2022-12-03T13:30:16.060Z,98175.00
2022-12-03T13:32:44.751Z,98178.02
2022-12-03T13:35:36.427Z,98179.28
2022-12-03T13:38:14.153Z,98176.08
2022-12-03T13:40:43.161Z,98172.51
2022-12-03T13:43:20.867Z,98179.95
2022-12-03T13:45:51.668Z,98176.52
2022-12-03T13:48:31.652Z,98183.06
2022-12-03T13:51:21.425Z,98183.65
2022-12-03T13:53:50.315Z,98185.17
2022-12-03T13:56:30.881Z,98186.78
2022-12-03T13:59:01.103Z,98185.65
2022-12-03T14:01:30.488Z,98184.48
2022-12-03T14:03:59.221Z,98184.20
2022-12-03T14:06:28.188Z,98185.10
2022-12-03T14:08:56.971Z,98186.98
2022-12-03T14:11:44.096Z,98189.42
2022-12-03T14:14:12.880Z,98191.79
2022-12-03T14:16:41.509Z,98190.98
2022-12-03T14:19:10.559Z,98190.61
2022-12-03T14:21:39.647Z,98192.29
2022-12-03T14:24:08.436Z,98190.95
2022-12-03T14:26:37.024Z,98191.04
2022-12-03T14:29:08.707Z,98191.39
2022-12-03T14:31:37.838Z,98194.30
2022-12-03T14:34:06.561Z,98189.55
2022-12-03T14:36:35.201Z,98196.84
2022-12-03T14:39:03.931Z,98196.04
2022-12-03T14:41:51.869Z,98196.98
2022-12-03T14:44:23.918Z,98197.41
2022-12-03T14:46:56.742Z,98196.64
2022-12-03T14:49:26.319Z,98198.58
2022-12-03T14:51:55.106Z,98195.17
2022-12-03T14:54:23.894Z,98198.71
2022-12-03T14:56:52.476Z,98201.77
2022-12-03T14:59:27.194Z,98200.88
2022-12-03T15:01:56.707Z,98211.27
2022-12-03T15:04:26.111Z,98216.83
2022-12-03T15:06:54.695Z,98219.88
2022-12-03T15:09:23.992Z,98222.55
2022-12-03T15:11:52.884Z,98218.84
2022-12-03T15:14:23.720Z,98220.65
2022-12-03T15:16:52.600Z,98216.83
2022-12-03T15:19:21.602Z,98214.19
2022-12-03T15:21:50.085Z,98215.26
2022-12-03T15:24:18.871Z,98216.34
2022-12-03T15:26:47.356Z,98218.96
2022-12-03T15:29:16.038Z,98221.92
2022-12-03T15:31:44.881Z,98218.94
2022-12-03T15:34:18.779Z,98217.55
2022-12-03T15:36:51.577Z,98219.49
2022-12-03T15:39:20.202Z,98220.77
2022-12-03T15:41:49.806Z,98224.98
2022-12-03T15:44:18.594Z,98224.52
2022-12-03T15:46:47.287Z,98222.98
2022-12-03T15:49:16.166Z,98225.92
2022-12-03T15:51:44.753Z,98224.86
2022-12-03T15:54:13.442Z,98227.93
2022-12-03T15:56:42.943Z,98229.27
2022-12-03T15:59:11.525Z,98233.20
2022-12-03T16:01:40.359Z,98237.27
2022-12-03T16:04:17.498Z,98240.98
2022-12-03T16:06:47.009Z,98243.14
2022-12-03T16:09:15.587Z,98246.52
2022-12-03T16:11:44.171Z,98248.89
2022-12-03T16:14:12.753Z,98249.54
2022-12-03T16:16:41.339Z,98250.32
2022-12-03T16:19:09.920Z,98246.31
2022-12-03T16:21:39.239Z,98248.22
2022-12-03T16:24:09.031Z,98243.88
2022-12-03T16:26:37.870Z,98245.00
2022-12-03T16:29:06.509Z,98247.98
2022-12-03T16:31:35.130Z,98246.84
2022-12-03T16:34:03.784Z,98252.06
2022-12-03T16:36:32.559Z,98247.36
2022-12-03T16:39:01.141Z,98246.25
2022-12-03T16:41:29.771Z,98244.11
2022-12-03T16:43:59.134Z,98245.39
2022-12-03T16:46:27.674Z,98244.95
2022-12-03T16:48:58.207Z,98246.07
2022-12-03T16:51:28.579Z,98249.23
2022-12-03T16:53:57.250Z,98249.11
2022-12-03T16:56:25.842Z,98247.67
2022-12-03T16:58:54.932Z,98244.17
2022-12-03T17:01:25.032Z,98246.14
2022-12-03T17:03:53.945Z,98249.15
2022-12-03T17:06:22.726Z,98249.75
2022-12-03T17:08:51.524Z,98248.29
2022-12-03T17:11:20.103Z,98250.77
2022-12-03T17:13:48.800Z,98249.51
2022-12-03T17:16:17.515Z,98248.45
2022-12-03T17:18:46.354Z,98251.30
2022-12-03T17:21:15.048Z,98252.31
2022-12-03T17:23:45.063Z,98257.27
2022-12-03T17:26:15.692Z,98257.89
2022-12-03T17:28:44.992Z,98257.93
2022-12-03T17:31:14.149Z,98257.85
2022-12-03T17:33:42.875Z,98259.77
2022-12-03T17:36:11.766Z,98264.79
2022-12-03T17:38:40.856Z,98265.67
2022-12-03T17:41:09.542Z,98268.26
2022-12-03T17:43:38.130Z,98267.09
2022-12-03T17:46:07.699Z,98267.28
2022-12-03T17:48:36.422Z,98271.46
2022-12-03T17:51:05.156Z,98271.17
2022-12-03T17:53:33.586Z,98272.74
2022-12-03T17:56:02.375Z,98275.17
2022-12-03T17:58:31.059Z,98274.47
2022-12-03T18:01:03.126Z,98273.40
2022-12-03T18:03:31.933Z,98274.27
2022-12-03T18:06:00.801Z,98269.79
2022-12-03T18:08:29.249Z,98268.85
2022-12-03T18:10:57.866Z,98266.71
2022-12-03T18:13:26.663Z,98268.02
2022-12-03T18:15:55.289Z,98268.98
2022-12-03T18:18:24.433Z,98267.05
2022-12-03T18:20:53.963Z,98266.66
2022-12-03T18:23:22.521Z,98265.37
2022-12-03T18:25:51.273Z,98270.09
2022-12-03T18:28:20.204Z,98270.77
2022-12-03T18:30:52.518Z,98269.20
2022-12-03T18:33:23.600Z,98268.04
2022-12-03T18:35:57.511Z,98266.20
2022-12-03T18:38:33.094Z,98266.41
2022-12-03T18:41:01.752Z,98266.31
2022-12-03T18:43:30.439Z,98267.69
2022-12-03T18:45:59.325Z,98267.69
2022-12-03T18:48:27.816Z,98265.75
2022-12-03T18:50:56.798Z,98266.54
2022-12-03T18:53:25.381Z,98267.17
2022-12-03T18:55:53.880Z,98271.73
2022-12-03T18:58:22.448Z,98271.33
2022-12-03T19:00:51.160Z,98273.83
2022-12-03T19:03:19.909Z,98270.00
2022-12-03T19:05:48.813Z,98271.14
2022-12-03T19:08:20.051Z,98271.59
2022-12-03T19:10:59.802Z,98276.52
2022-12-03T19:13:28.905Z,98276.12
2022-12-03T19:15:57.672Z,98278.36
2022-12-03T19:18:26.470Z,98281.41
2022-12-03T19:20:55.367Z,98284.61
2022-12-03T19:23:24.456Z,98282.14
2022-12-03T19:26:01.396Z,98283.63
2022-12-03T19:28:29.917Z,98284.84
2022-12-03T19:31:03.679Z,98281.22
2022-12-03T19:33:33.166Z,98279.50
2022-12-03T19:36:04.064Z,98280.71
2022-12-03T19:38:33.468Z,98276.05
2022-12-03T19:41:07.952Z,98279.98
2022-12-03T19:43:38.342Z,98279.07
2022-12-03T19:46:08.927Z,98277.33
2022-12-03T19:48:39.339Z,98275.73
2022-12-03T19:51:32.964Z,98277.25
2022-12-03T19:53:57.533Z,98284.79
2022-12-03T19:56:26.219Z,98283.59
2022-12-03T19:58:55.724Z,98285.80
2022-12-03T20:01:27.007Z,98285.80
2022-12-03T20:03:58.108Z,98283.74
2022-12-03T20:06:29.806Z,98283.59
2022-12-03T20:09:05.101Z,98286.16
2022-12-03T20:11:34.801Z,98287.25
2022-12-03T20:14:07.021Z,98289.60
2022-12-03T20:16:36.741Z,98287.82
2022-12-03T20:19:07.837Z,98291.20
2022-12-03T20:21:37.553Z,98290.23
2022-12-03T20:24:07.432Z,98289.70
2022-12-03T20:26:36.139Z,98290.83
2022-12-03T20:29:04.724Z,98290.95
2022-12-03T20:31:33.662Z,98291.84
2022-12-03T20:34:04.659Z,98292.54
2022-12-03T20:36:33.442Z,98293.11
2022-12-03T20:39:07.152Z,98296.27
2022-12-03T20:41:36.756Z,98298.11
2022-12-03T20:44:08.045Z,98296.45
2022-12-03T20:46:36.762Z,98298.41
2022-12-03T20:49:05.674Z,98303.50
2022-12-03T20:51:34.262Z,98301.41
2022-12-03T20:54:03.208Z,98302.87
2022-12-03T20:56:34.766Z,98303.81
2022-12-03T20:59:06.674Z,98304.26
2022-12-03T21:01:36.596Z,98306.70
2022-12-03T21:04:05.985Z,98312.91
2022-12-03T21:06:36.401Z,98311.73
2022-12-03T21:09:07.089Z,98309.50
2022-12-03T21:11:39.147Z,98306.29
2022-12-03T21:14:08.617Z,98308.36
2022-12-03T21:17:07.352Z,98308.23
2022-12-03T21:19:28.508Z,98308.07
2022-12-03T21:21:57.323Z,98304.20
2022-12-03T21:24:25.985Z,98302.48
2022-12-03T21:26:54.672Z,98305.42
2022-12-03T21:29:25.097Z,98307.06
2022-12-03T21:31:53.992Z,98303.52
2022-12-03T21:34:22.878Z,98306.25
2022-12-03T21:36:51.561Z,98305.45
2022-12-03T21:39:20.247Z,98310.28
2022-12-03T21:42:19.006Z,98313.79
2022-12-03T21:44:38.711Z,98310.88
2022-12-03T21:47:10.610Z,98309.14
2022-12-03T21:49:41.827Z,98310.70
2022-12-03T21:52:11.527Z,98312.10
2022-12-03T21:54:40.111Z,98307.33
2022-12-03T21:57:08.796Z,98304.58
2022-12-03T21:59:37.582Z,98299.54
2022-12-03T22:02:06.477Z,98298.46
2022-12-03T22:04:35.473Z,98300.63
2022-12-03T22:07:04.810Z,98298.18
2022-12-03T22:09:34.169Z,98296.44
2022-12-03T22:12:02.752Z,98292.61
2022-12-03T22:14:32.182Z,98294.03
2022-12-03T22:17:00.746Z,98294.48
2022-12-03T22:19:29.624Z,98293.38
2022-12-03T22:21:58.415Z,98300.23
2022-12-03T22:24:27.006Z,98295.59
2022-12-03T22:26:56.195Z,98297.13
2022-12-03T22:29:25.097Z,98294.06
2022-12-03T22:31:53.978Z,98296.11
2022-12-03T22:34:23.595Z,98301.48
2022-12-03T22:36:52.379Z,98298.26
2022-12-03T22:39:21.367Z,98302.79
2022-12-03T22:41:50.255Z,98305.92
2022-12-03T22:44:19.585Z,98303.59
2022-12-03T22:46:48.378Z,98300.04
2022-12-03T22:49:17.045Z,98298.59
2022-12-03T22:51:47.071Z,98298.82
2022-12-03T22:54:20.901Z,98293.87
2022-12-03T22:56:52.615Z,98290.10
2022-12-03T22:59:21.605Z,98289.08
2022-12-03T23:01:50.597Z,98291.64
2022-12-03T23:04:19.894Z,98297.48
2022-12-03T23:06:48.886Z,98299.40
2022-12-03T23:09:17.920Z,98304.89
2022-12-03T23:11:47.181Z,98304.92
2022-12-03T23:14:16.171Z,98303.93
2022-12-03T23:16:45.065Z,98299.02
2022-12-03T23:19:15.090Z,98300.06
2022-12-03T23:21:43.659Z,98297.45
2022-12-03T23:24:12.667Z,98296.10
2022-12-03T23:26:41.550Z,98295.23
2022-12-03T23:29:11.160Z,98299.86
2022-12-03T23:31:40.231Z,98305.06
2022-12-03T23:34:09.396Z,98301.29
2022-12-03T23:36:38.441Z,98298.90
2022-12-03T23:39:07.329Z,98293.98
2022-12-03T23:41:36.732Z,98291.41
2022-12-03T23:44:06.036Z,98292.27
2022-12-03T23:46:35.685Z,98290.20
2022-12-03T23:49:04.626Z,98287.63
2022-12-03T23:51:34.653Z,98288.84
2022-12-03T23:54:03.749Z,98290.36
2022-12-03T23:56:32.947Z,98287.11
2022-12-03T23:59:02.095Z,98288.98
